Juliaetta, ID (83535)

8:50 PM PDT on September 02, 2015 (GMT -0700)
Moose Draw | | Change Station
CLOSE
Current Station
Personal Weather Station
Location: Troy, ID
Elevation: 2569 ft
Nearby Weather Stations

Elev 2569 ft 46.70 °N, 116.79 °W | Updated 14 minutes ago

Overcast
Overcast
54.5 °F
Feels Like 54.5 °F
N
0.0
Wind Variable Wind from NW
Gusts 0.0 mph

Today
High -- | Low -- °F
--% Chance of Precip.
Yesterday
High -- | Low -- °F
Precip. -- in
6:08 AM 7:24 PM
Waning Gibbous, 74% visible
Pressure 29.86 in
Visibility 10.0 miles
Clouds Mostly Cloudy 8500 ft
Overcast 11000 ft
Dew Point 46 °F
Humidity 74%
Rainfall 0.01 in
Snow Depth Not available.
UV 0 out of 12
Pollen 7.70 out of 12
Air Quality Not available.
Flu Activity Not available.
METAR KLWS 030256Z 09005KT 10SM BKN085 OVC110 19/06 A2987 RMK AO2 SLP109 T01890061 53001
Pressure 29.86 in
Visibility 10.0 miles
Clouds Mostly Cloudy 8500 ft
Overcast 11000 ft
Dew Point 46 °F
Humidity 74%
Rainfall 0.01 in
Snow Depth Not available.
UV 0 out of 12
Pollen 7.70 out of 12
Air Quality Not available.
Flu Activity Not available.
METAR KLWS 030256Z 09005KT 10SM BKN085 OVC110 19/06 A2987 RMK AO2 SLP109 T01890061 53001

10-Day Weather Forecast

×

Almanac

Astronomy

Sep. 02, 2015 Rise Set
Actual Time
Civil Twilight
Nautical Twilight
Astronomical Twilight
Moon
Length of Visible Light
Length of Day
Tomorrow will be .
, % of the Moon is Illuminated

Today's Extremes

State Highs State Lows

Community

WunderPhotos

Upload Photos

1,851,903 photos uploaded!

WunderBlogs® & News

Nearby

Air Quality

  Air Quality AQ Index Pollutant
Not available.

Snow Depth

Station Depth Elevation

Earthquake Activity

City Distance Mag. Time & Date
Minimum magnitude displayed is 2.5.

Coastal Water Temperatures

Place Temperature

Stations

Nearby Weather Stations

Station Location Temp. Windchill Dew Point Humidity Wind Precip. Elev Updated Type